Azle, Texas
Current Conditions -  °F | °C
As of 4:52 PM on Friday 31 Oct 2014 (Local Time) from KNFW Reporting Station
Clear Clear  
Wind Chill: 69°   Ceiling: Unl
Heat Index: 69°   Visibility: 10mi
Dew Point: 36°   Wind: 16mph
Humidity: 30%   Direction: 10°N
Pressure: 30.34"   Gusts: NA
Location:  32.88°N, 97.54°W
Report Text: KNFW 312152Z 01014KT 10SM CLR 21/02 A3034 RMK AO2 SLP255 T02060022 CHINO N VISNO N $
Loading
Personal Weather Stations






























Interactive Weather Map New forecast layout! Learn more

10-Day Weather Forecast

Advertisements
Track Severe Weather on mobile